Skip Navigation Links
NOAA logo - Click to go to the NOAA homepage
NOAA's National Weather Service
Alaska Aviation Weather Unit
  NWS logo - Click to go to the NWS homepage
Left Navbar Graphic     21 AKDT = 05 GMT

   
NOAA is celebrating 200 years of science, service, and stewardship. Visit the NOAA 200th celebration Web site to learn more.
USA.gov is the U.S. Government's official Web portal to all Federal, state and local government Web resources and services.
Facebook
NWS on Facebook

AAWU Home :: Display TAF Add Bookmark
TAF PAOM 262320Z 2700/2724 13006KT P6SM -SHRA BKN040 OVC080
     FM270400 08004KT P6SM VCSH BKN040 OVC080=
METAR PAOM 262353Z 17005KT 10SM BKN024 BKN037 OVC060 05/02 A2957=

PAOM 270000Z 16005KT 10SM SCT023 OVC040 05/02 A2957=

PAOM 270000Z 16005KT 10SM SCT023 OVC040 05/02 A2957 RMK AO2
     T00500017=

METAR PAOM 270053Z 23004KT 10SM SCT026 BKN032 OVC050 05/02 A2957=

METAR PAOM 270153Z 25005KT 10SM FEW029 SCT035 BKN080 06/02 A2957=

PAOM 270156Z 27005KT 10SM SCT032 BKN080 BKN095 06/02 A2957=

PAOM 270156Z 27005KT 10SM SCT032 BKN080 BKN095 06/02 A2957 RMK AO2
     SCT V BKN T00560022=

METAR PAOM 270253Z 28007KT 10SM SCT042 SCT055 BKN070 BKN130 05/03
     A2958=

METAR PAOM 270353Z 29006KT 10SM BKN050 BKN065 BKN080 06/03 A2958=

METAR PAOM 270453Z 34006KT 10SM BKN048 BKN055 OVC070 06/02 A2959 RMK AO2
     SLP019 T00610017=


NOAA's National Weather Service
Alaska Aviation Weather Unit
6930 Sand Lake Road
Anchorage, AK 99502-1845
Disclaimer
Credits
Glossary
Privacy Policy
About Us
Career Opportunities
Contact AAWU Internet Services Site last modified: April, 17th 2012